Time;durP1;ratioP1;P1;durP2;ratioP2;P2;SDS_P1;SDS_P2;PMS_P1;PMS_P2;Temp;Humidity;BMP_temperature;BMP_pressure;BME280_temperature;BME280_humidity;BME280_pressure;Samples;Min_cycle;Max_cycle;Signal;HPM_P1;HPM_P2
2022/05/27 00:02:15;;;;;;;18.95;5.28;;;13.30;99.90;;;;;;5048942;28;20041;-85
2022/05/27 00:04:41;;;;;;;17.92;5.70;;;13.30;99.90;;;;;;5048864;28;20041;-84
2022/05/27 00:07:06;;;;;;;17.90;4.97;;;13.30;99.90;;;;;;5015562;28;20052;-84
2022/05/27 00:09:32;;;;;;;19.38;5.03;;;13.30;99.90;;;;;;5032062;28;20045;-84
2022/05/27 00:11:58;;;;;;;14.38;5.05;;;13.30;99.90;;;;;;5049261;28;20099;-83
2022/05/27 00:14:24;;;;;;;14.32;5.25;;;13.30;99.90;;;;;;5048761;28;20067;-83
2022/05/27 00:16:49;;;;;;;17.98;5.82;;;13.30;99.90;;;;;;4997945;28;20485;-84
2022/05/27 00:19:16;;;;;;;18.08;5.63;;;13.30;99.90;;;;;;5012503;28;20060;-83
2022/05/27 00:21:42;;;;;;;17.65;6.15;;;13.40;99.90;;;;;;5008804;28;20045;-82
2022/05/27 00:24:07;;;;;;;18.80;5.88;;;13.30;99.90;;;;;;5014441;28;20068;-84
2022/05/27 00:26:33;;;;;;;18.75;6.07;;;13.30;99.90;;;;;;5015279;28;20041;-84
2022/05/27 00:28:59;;;;;;;21.08;5.53;;;13.30;99.90;;;;;;5049065;28;20045;-83
2022/05/27 00:31:28;;;;;;;15.95;5.13;;;13.30;99.90;;;;;;5049496;28;20114;-84
2022/05/27 00:33:53;;;;;;;18.85;5.78;;;13.30;99.90;;;;;;5052780;28;20371;-83
2022/05/27 00:36:19;;;;;;;17.08;5.22;;;13.20;99.90;;;;;;5019437;28;20040;-83
2022/05/27 00:38:45;;;;;;;16.73;5.40;;;13.20;99.90;;;;;;5004877;28;20453;-83
2022/05/27 00:41:11;;;;;;;12.85;5.97;;;13.20;99.90;;;;;;5033229;28;20049;-83
2022/05/27 00:43:41;;;;;;;20.50;6.10;;;13.20;99.90;;;;;;5015715;28;20061;-85
2022/05/27 00:46:29;;;;;;;17.48;5.28;;;13.20;99.90;;;;;;5032410;28;20657;-83
2022/05/27 00:49:16;;;;;;;20.00;5.82;;;13.20;99.90;;;;;;5046370;28;20072;-83
2022/05/27 00:51:57;;;;;;;16.08;5.38;;;13.10;99.90;;;;;;4996577;28;20677;-83
2022/05/27 00:54:25;;;;;;;13.55;4.88;;;13.10;99.90;;;;;;5026769;28;20045;-84
2022/05/27 00:56:55;;;;;;;15.10;5.22;;;13.10;99.90;;;;;;5031817;28;20068;-84
2022/05/27 00:59:28;;;;;;;18.95;5.90;;;13.10;99.90;;;;;;5023227;28;20455;-83
2022/05/27 01:01:53;;;;;;;20.88;5.30;;;13.00;99.90;;;;;;5015509;28;20056;-84
2022/05/27 01:04:20;;;;;;;16.70;5.07;;;13.00;99.90;;;;;;4995581;28;20046;-84
2022/05/27 01:06:46;;;;;;;23.02;5.43;;;12.90;99.90;;;;;;5014206;28;20410;-84
2022/05/27 01:09:13;;;;;;;13.25;4.90;;;12.90;99.90;;;;;;4999338;28;20056;-84
2022/05/27 01:11:54;;;;;;;15.48;5.05;;;12.70;99.90;;;;;;5031483;28;20049;-84
2022/05/27 01:14:51;;;;;;;17.98;5.18;;;12.70;99.90;;;;;;5015249;28;20530;-84
2022/05/27 01:17:35;;;;;;;13.27;4.80;;;12.60;99.90;;;;;;5010606;28;20061;-84
2022/05/27 01:20:25;;;;;;;17.98;4.93;;;12.60;99.90;;;;;;4995826;28;20496;-84
2022/05/27 01:22:53;;;;;;;20.27;5.63;;;12.60;99.90;;;;;;5012486;28;20501;-83
2022/05/27 01:25:34;;;;;;;16.58;5.72;;;12.50;99.90;;;;;;5031296;28;20375;-85
2022/05/27 01:28:28;;;;;;;14.23;5.20;;;12.50;99.90;;;;;;5017787;28;20506;-83
2022/05/27 01:31:06;;;;;;;22.13;5.95;;;12.50;99.90;;;;;;5035787;28;20046;-83
2022/05/27 01:33:53;;;;;;;18.08;6.15;;;12.40;99.90;;;;;;5034473;28;20048;-83
2022/05/27 01:36:53;;;;;;;18.88;5.38;;;12.40;99.90;;;;;;5046190;28;20525;-84
2022/05/27 01:39:37;;;;;;;19.85;5.95;;;12.30;99.90;;;;;;5031472;28;20045;-86
2022/05/27 01:42:10;;;;;;;16.40;5.97;;;12.40;99.90;;;;;;5014869;28;20053;-84
2022/05/27 01:44:48;;;;;;;27.90;6.53;;;12.40;99.90;;;;;;5013510;28;20099;-84
2022/05/27 01:47:31;;;;;;;15.90;6.05;;;12.40;99.90;;;;;;5014848;28;20128;-83
2022/05/27 01:50:11;;;;;;;16.35;5.07;;;12.40;99.90;;;;;;5017608;28;20053;-82
2022/05/27 01:53:02;;;;;;;19.05;5.43;;;12.50;99.90;;;;;;5013986;28;20471;-83
2022/05/27 01:55:42;;;;;;;22.90;5.97;;;12.40;99.90;;;;;;5030678;28;20072;-84
2022/05/27 01:58:14;;;;;;;27.70;5.75;;;12.50;99.90;;;;;;5030989;28;20053;-83
2022/05/27 02:00:43;;;;;;;15.88;4.50;;;12.50;99.90;;;;;;5016437;28;20057;-84
2022/05/27 02:03:23;;;;;;;19.45;4.93;;;12.40;99.90;;;;;;5023330;28;20073;-84
2022/05/27 02:06:05;;;;;;;25.58;5.50;;;12.40;99.90;;;;;;5030673;28;20053;-83
2022/05/27 02:09:00;;;;;;;26.10;6.10;;;12.40;99.90;;;;;;5029475;28;20395;-84
2022/05/27 02:11:27;;;;;;;32.42;6.45;;;12.30;99.90;;;;;;5016983;28;20045;-84
2022/05/27 02:14:03;;;;;;;20.88;5.10;;;12.20;99.90;;;;;;5030272;28;20041;-84
2022/05/27 02:16:44;;;;;;;21.17;5.10;;;12.20;99.90;;;;;;5030970;28;20395;-83
2022/05/27 02:19:19;;;;;;;23.05;5.50;;;12.10;99.90;;;;;;5031067;28;20044;-83
2022/05/27 02:21:56;;;;;;;16.95;4.60;;;11.90;99.90;;;;;;5032926;28;20646;-83
2022/05/27 02:24:27;;;;;;;25.75;5.07;;;12.00;99.90;;;;;;5014350;28;20042;-83
2022/05/27 02:27:02;;;;;;;23.85;5.68;;;11.90;99.90;;;;;;5030792;28;20107;-83
2022/05/27 02:29:32;;;;;;;31.55;6.30;;;11.90;99.90;;;;;;5015174;28;20045;-84
2022/05/27 02:32:08;;;;;;;22.08;5.40;;;11.90;99.90;;;;;;5014312;28;20132;-83
2022/05/27 02:37:31;;;;;;;22.25;5.20;;;11.70;99.90;;;;;;5063558;28;19978;-85
2022/05/27 02:40:01;;;;;;;18.85;5.15;;;11.60;99.90;;;;;;5029100;28;20072;-83
2022/05/27 02:42:48;;;;;;;25.85;5.38;;;11.60;99.90;;;;;;5031326;28;20063;-87
2022/05/27 02:45:33;;;;;;;27.73;5.93;;;11.50;99.90;;;;;;5026955;28;20038;-84
2022/05/27 02:48:17;;;;;;;20.30;5.72;;;11.50;99.90;;;;;;5010490;28;20049;-84
2022/05/27 02:50:52;;;;;;;19.05;5.40;;;11.50;99.90;;;;;;5021375;28;20076;-84
2022/05/27 02:53:49;;;;;;;31.77;6.25;;;11.40;99.90;;;;;;5026385;28;20049;-82
2022/05/27 02:56:22;;;;;;;23.77;5.43;;;11.40;99.90;;;;;;5027212;28;20065;-84
2022/05/27 02:58:49;;;;;;;24.88;5.43;;;11.30;99.90;;;;;;4993455;28;20238;-84
2022/05/27 03:01:14;;;;;;;30.50;5.65;;;11.30;99.90;;;;;;4997761;28;20372;-83
2022/05/27 03:03:41;;;;;;;21.40;5.35;;;11.20;99.90;;;;;;5013696;28;20045;-83
2022/05/27 03:06:19;;;;;;;25.73;5.93;;;11.30;99.90;;;;;;5030211;28;20111;-83
2022/05/27 03:08:54;;;;;;;23.00;5.82;;;11.40;99.90;;;;;;5028904;28;20049;-83
2022/05/27 03:11:41;;;;;;;25.65;5.40;;;11.40;99.90;;;;;;5028931;28;20046;-85
2022/05/27 03:14:33;;;;;;;22.52;6.13;;;11.30;99.90;;;;;;5039155;28;20196;-83
2022/05/27 03:17:18;;;;;;;21.02;5.32;;;11.30;99.90;;;;;;5010231;28;20053;-83
2022/05/27 03:19:54;;;;;;;19.88;6.28;;;11.20;99.90;;;;;;5009888;28;20057;-83
2022/05/27 03:22:40;;;;;;;30.80;5.53;;;11.20;99.90;;;;;;5025538;28;20045;-83
2022/05/27 03:25:25;;;;;;;30.40;8.10;;;11.20;99.90;;;;;;5030919;28;20072;-83
2022/05/27 03:28:15;;;;;;;25.60;5.45;;;11.20;99.90;;;;;;5029334;28;20049;-82
2022/05/27 03:30:56;;;;;;;21.85;5.53;;;11.10;99.90;;;;;;5029379;28;20140;-82
2022/05/27 03:33:35;;;;;;;27.73;6.30;;;11.10;99.90;;;;;;5032218;28;20112;-83
2022/05/27 03:36:20;;;;;;;25.85;6.00;;;11.10;99.90;;;;;;5015421;28;20107;-83
2022/05/27 03:39:06;;;;;;;17.98;5.28;;;11.10;99.90;;;;;;5012002;28;20076;-84
2022/05/27 03:41:38;;;;;;;27.45;5.78;;;11.00;99.90;;;;;;5030275;28;20053;-83
2022/05/27 03:44:05;;;;;;;20.33;5.80;;;11.00;99.90;;;;;;5013384;28;20110;-84
2022/05/27 03:46:37;;;;;;;24.75;5.97;;;11.00;99.90;;;;;;5012739;28;20045;-83
2022/05/27 03:49:03;;;;;;;26.10;5.75;;;11.00;99.90;;;;;;5011627;28;20128;-84
2022/05/27 03:51:37;;;;;;;23.80;6.10;;;11.00;99.90;;;;;;4998667;28;20498;-83
2022/05/27 03:54:06;;;;;;;20.40;5.80;;;11.00;99.90;;;;;;5014551;28;20045;-84
2022/05/27 03:56:35;;;;;;;23.17;5.90;;;11.00;99.90;;;;;;5013092;28;20135;-84
2022/05/27 03:59:03;;;;;;;21.50;5.57;;;11.00;99.90;;;;;;5011810;28;20136;-85
2022/05/27 04:01:30;;;;;;;20.63;4.85;;;11.10;99.90;;;;;;5010401;28;20054;-84
2022/05/27 04:03:58;;;;;;;20.65;4.60;;;11.00;99.90;;;;;;5027698;28;20046;-84
2022/05/27 04:06:24;;;;;;;23.70;4.80;;;11.10;99.90;;;;;;5013778;28;20049;-84
2022/05/27 04:08:50;;;;;;;18.02;4.22;;;11.10;99.90;;;;;;5032695;28;20045;-84
2022/05/27 04:11:16;;;;;;;19.80;4.32;;;11.20;99.90;;;;;;5033231;28;20099;-84
2022/05/27 04:13:41;;;;;;;16.65;4.18;;;11.20;99.90;;;;;;5019200;28;20045;-84
2022/05/27 04:16:07;;;;;;;21.15;4.00;;;11.20;99.90;;;;;;5014615;28;20067;-84
2022/05/27 04:18:33;;;;;;;15.93;4.10;;;11.30;99.90;;;;;;5000288;28;20057;-85
2022/05/27 04:20:58;;;;;;;18.77;4.45;;;11.30;99.90;;;;;;5031891;28;20045;-84
2022/05/27 04:23:24;;;;;;;16.95;3.65;;;11.30;99.90;;;;;;5033899;28;20388;-84
2022/05/27 04:25:50;;;;;;;17.58;4.40;;;11.30;99.90;;;;;;5014172;28;20187;-84
2022/05/27 04:28:18;;;;;;;17.65;5.00;;;11.30;99.90;;;;;;5015758;28;20115;-84
2022/05/27 04:30:45;;;;;;;23.02;4.65;;;11.40;99.90;;;;;;5031572;28;20041;-84
2022/05/27 04:33:11;;;;;;;18.63;4.55;;;11.40;99.90;;;;;;5016889;28;20044;-85
2022/05/27 04:35:37;;;;;;;23.55;4.60;;;11.40;99.90;;;;;;5000948;28;20042;-83
2022/05/27 04:38:04;;;;;;;15.70;4.00;;;11.50;99.90;;;;;;5002425;28;20136;-83
2022/05/27 04:40:30;;;;;;;23.10;4.53;;;11.50;99.90;;;;;;4999576;28;20376;-83
2022/05/27 04:42:56;;;;;;;22.05;4.70;;;11.50;99.90;;;;;;5032089;28;20052;-83
2022/05/27 04:45:22;;;;;;;21.17;4.70;;;11.60;99.90;;;;;;5018254;28;20519;-83
2022/05/27 04:47:48;;;;;;;19.95;4.15;;;11.60;99.90;;;;;;4998243;28;20529;-84
2022/05/27 04:50:14;;;;;;;21.27;4.22;;;11.60;99.90;;;;;;5015524;28;20443;-84
2022/05/27 04:52:41;;;;;;;16.67;3.88;;;11.60;99.90;;;;;;5016023;28;20399;-84
2022/05/27 04:55:10;;;;;;;23.63;4.13;;;11.70;99.90;;;;;;5015957;28;20038;-83
2022/05/27 04:57:40;;;;;;;17.27;3.97;;;11.60;99.90;;;;;;5032020;28;20064;-85
2022/05/27 05:00:10;;;;;;;16.95;4.00;;;11.60;99.90;;;;;;5003257;28;20383;-83
2022/05/27 05:02:36;;;;;;;18.25;4.05;;;11.60;99.90;;;;;;5016544;28;20054;-83
2022/05/27 05:05:02;;;;;;;19.02;2.90;;;11.60;99.90;;;;;;4997669;28;20045;-83
2022/05/27 05:07:30;;;;;;;17.65;3.70;;;11.50;99.90;;;;;;5032166;28;20044;-82
2022/05/27 05:09:58;;;;;;;12.63;3.15;;;11.50;99.90;;;;;;5027715;28;20388;-83
2022/05/27 05:12:23;;;;;;;11.10;2.83;;;11.40;99.90;;;;;;5022343;28;20057;-83
2022/05/27 05:14:53;;;;;;;23.20;3.65;;;11.40;99.90;;;;;;5034212;28;20045;-83
2022/05/27 05:17:19;;;;;;;12.57;3.10;;;11.40;99.90;;;;;;5019422;28;20052;-84
2022/05/27 05:19:46;;;;;;;14.35;3.28;;;11.40;99.90;;;;;;5015251;28;20144;-85
2022/05/27 05:22:13;;;;;;;16.23;3.42;;;11.40;99.90;;;;;;5015113;28;20045;-84
2022/05/27 05:24:39;;;;;;;12.27;2.22;;;11.40;99.90;;;;;;5014580;28;20053;-84
2022/05/27 05:27:05;;;;;;;15.55;2.58;;;11.40;99.90;;;;;;5013892;28;20037;-84
2022/05/27 05:29:30;;;;;;;16.50;2.72;;;11.50;99.90;;;;;;4998485;28;20150;-84
2022/05/27 05:31:56;;;;;;;15.48;3.08;;;11.50;99.90;;;;;;4998309;28;20126;-85
2022/05/27 05:34:21;;;;;;;12.43;2.70;;;11.60;99.90;;;;;;5013935;28;20425;-83
2022/05/27 05:36:47;;;;;;;13.80;2.45;;;11.60;99.90;;;;;;4999323;28;20557;-85
2022/05/27 05:39:13;;;;;;;23.92;3.50;;;11.80;99.90;;;;;;5014442;28;20577;-84
2022/05/27 05:41:40;;;;;;;12.85;2.85;;;11.70;99.90;;;;;;5016542;28;20050;-84
2022/05/27 05:44:07;;;;;;;15.80;2.58;;;11.80;99.90;;;;;;5013972;28;20502;-83
2022/05/27 05:46:35;;;;;;;16.35;3.20;;;11.80;99.90;;;;;;5021890;28;20049;-83
2022/05/27 05:49:01;;;;;;;18.75;2.83;;;11.80;99.90;;;;;;5017415;28;20046;-84
2022/05/27 05:51:27;;;;;;;13.65;2.78;;;11.80;99.90;;;;;;5014688;28;20611;-83
2022/05/27 05:53:54;;;;;;;13.77;3.00;;;11.70;99.90;;;;;;5014447;28;20138;-84
2022/05/27 05:56:20;;;;;;;17.13;3.50;;;11.70;99.90;;;;;;5014864;28;20474;-83
2022/05/27 05:58:49;;;;;;;11.75;2.33;;;11.80;99.90;;;;;;4997929;28;20514;-83
2022/05/27 06:01:15;;;;;;;20.42;3.20;;;11.90;99.90;;;;;;5014653;28;20049;-83
2022/05/27 06:03:41;;;;;;;13.27;2.80;;;12.00;99.90;;;;;;4993154;28;20522;-84
2022/05/27 06:06:07;;;;;;;13.68;2.75;;;12.10;99.90;;;;;;5010772;28;20049;-84
2022/05/27 06:08:33;;;;;;;14.55;2.80;;;12.10;99.90;;;;;;4989385;28;20380;-85
2022/05/27 06:10:59;;;;;;;14.27;3.00;;;12.10;99.90;;;;;;5010658;28;20456;-85
2022/05/27 06:13:26;;;;;;;15.43;2.95;;;12.10;99.90;;;;;;4989829;28;20045;-85
2022/05/27 06:15:52;;;;;;;15.90;2.88;;;12.00;99.90;;;;;;5007389;28;20139;-86
2022/05/27 06:18:18;;;;;;;16.63;2.90;;;12.00;99.90;;;;;;5003755;28;20060;-85
2022/05/27 06:20:44;;;;;;;13.70;2.60;;;12.00;99.90;;;;;;4983572;28;20049;-85
2022/05/27 06:23:10;;;;;;;14.90;3.17;;;12.20;99.90;;;;;;4994828;28;20373;-85
2022/05/27 06:25:37;;;;;;;20.23;3.72;;;12.30;99.90;;;;;;5010815;28;20041;-85
2022/05/27 06:36:17;;;;;;;15.18;2.65;;;12.70;99.90;;;;;;4997113;28;20068;-84
2022/05/27 06:38:43;;;;;;;17.58;3.13;;;12.90;99.90;;;;;;4994918;28;20045;-84
2022/05/27 06:41:08;;;;;;;16.17;2.90;;;12.90;99.90;;;;;;5010894;28;20104;-85
2022/05/27 06:43:34;;;;;;;12.02;2.50;;;13.00;99.90;;;;;;5011133;28;20049;-85
2022/05/27 06:46:00;;;;;;;17.58;3.38;;;13.00;99.90;;;;;;4994105;28;20120;-85
2022/05/27 06:48:29;;;;;;;14.40;3.28;;;13.00;99.90;;;;;;4994886;28;20065;-85
2022/05/27 06:50:55;;;;;;;16.80;3.00;;;13.10;99.90;;;;;;5006916;28;20052;-86
2022/05/27 06:53:20;;;;;;;15.63;3.15;;;13.30;99.90;;;;;;5019358;28;20049;-85
2022/05/27 06:55:50;;;;;;;16.08;3.17;;;13.40;99.90;;;;;;4987947;28;20053;-86
2022/05/27 06:58:16;;;;;;;11.15;2.58;;;13.60;99.90;;;;;;5005942;28;20048;-86
2022/05/27 07:00:42;;;;;;;12.75;2.63;;;13.70;99.90;;;;;;5003541;28;20067;-86
2022/05/27 07:03:13;;;;;;;11.63;2.83;;;13.90;99.90;;;;;;5030693;28;20106;-86
2022/05/27 07:05:42;;;;;;;13.07;4.13;;;14.00;99.90;;;;;;5014180;28;20148;-85
2022/05/27 07:08:07;;;;;;;14.20;2.47;;;14.20;99.90;;;;;;5030245;28;20059;-85
2022/05/27 07:10:33;;;;;;;13.98;2.78;;;14.40;99.90;;;;;;5017345;28;20469;-85
2022/05/27 07:13:02;;;;;;;15.60;3.35;;;14.60;99.90;;;;;;5013798;28;20056;-86
2022/05/27 07:15:29;;;;;;;9.68;2.38;;;14.90;99.90;;;;;;5015863;28;20049;-86
2022/05/27 07:17:56;;;;;;;11.55;2.17;;;14.70;99.90;;;;;;5033753;28;20098;-86
2022/05/27 07:20:27;;;;;;;10.68;2.22;;;14.70;99.90;;;;;;5033575;28;20091;-86
2022/05/27 07:22:53;;;;;;;11.45;2.20;;;14.60;99.90;;;;;;5033426;28;20047;-87
2022/05/27 07:25:32;;;;;;;9.73;2.78;;;14.50;99.90;;;;;;5049911;28;20132;-85
2022/05/27 07:27:58;;;;;;;15.07;2.42;;;14.70;99.90;;;;;;5050673;28;20111;-85
2022/05/27 07:30:24;;;;;;;13.13;2.75;;;14.90;99.30;;;;;;5021118;28;20740;-86
2022/05/27 07:32:52;;;;;;;10.13;2.60;;;15.10;98.70;;;;;;5014739;28;20123;-85
2022/05/27 07:35:18;;;;;;;15.20;3.55;;;15.30;96.30;;;;;;4995481;28;20402;-87
2022/05/27 07:37:46;;;;;;;9.82;2.00;;;15.50;91.60;;;;;;5005080;28;20084;-85
2022/05/27 07:40:15;;;;;;;10.25;2.50;;;15.70;91.40;;;;;;5019540;28;20049;-84
2022/05/27 07:42:41;;;;;;;11.25;2.92;;;15.90;88.40;;;;;;5016681;28;20051;-85
2022/05/27 07:45:20;;;;;;;12.57;2.35;;;15.90;87.50;;;;;;5019432;28;20045;-84
2022/05/27 07:47:46;;;;;;;10.25;2.20;;;16.00;90.10;;;;;;5014706;28;20041;-84
2022/05/27 07:50:15;;;;;;;12.18;2.35;;;16.20;87.40;;;;;;5029818;28;20479;-84
2022/05/27 07:52:42;;;;;;;10.02;2.90;;;16.40;81.50;;;;;;5010443;28;20053;-83
2022/05/27 07:55:18;;;;;;;12.05;2.30;;;16.70;79.00;;;;;;5048621;28;20565;-83
2022/05/27 07:57:46;;;;;;;13.38;2.97;;;16.70;81.40;;;;;;5049243;28;20061;-83
2022/05/27 08:00:18;;;;;;;16.88;2.70;;;16.40;78.60;;;;;;5048932;28;20099;-83
2022/05/27 08:02:44;;;;;;;10.57;2.63;;;16.30;72.30;;;;;;5015564;28;20525;-83
2022/05/27 08:05:13;;;;;;;14.85;2.42;;;16.00;75.70;;;;;;5045333;28;20045;-83
2022/05/27 08:07:38;;;;;;;10.90;3.08;;;15.80;80.20;;;;;;5029314;28;20054;-83
2022/05/27 08:10:06;;;;;;;14.13;2.63;;;16.00;77.30;;;;;;5029175;28;20049;-84
2022/05/27 08:12:33;;;;;;;13.82;2.33;;;16.20;80.00;;;;;;5012681;28;20103;-83
2022/05/27 08:14:58;;;;;;;8.48;1.95;;;16.10;72.90;;;;;;5014212;28;20057;-83
2022/05/27 08:17:24;;;;;;;10.32;2.60;;;15.70;73.40;;;;;;5012450;28;20042;-83
2022/05/27 08:19:51;;;;;;;17.45;2.83;;;15.40;77.60;;;;;;5027582;28;20076;-77
2022/05/27 08:22:17;;;;;;;15.05;2.85;;;15.00;79.10;;;;;;5036271;28;20080;-76
2022/05/27 08:24:42;;;;;;;9.30;2.25;;;15.00;82.50;;;;;;5032030;28;20089;-76
2022/05/27 08:27:08;;;;;;;11.50;2.10;;;15.70;79.60;;;;;;5050082;28;20045;-77
2022/05/27 08:29:34;;;;;;;7.22;2.17;;;16.30;78.30;;;;;;5049646;28;20116;-77
2022/05/27 08:32:03;;;;;;;10.68;2.13;;;17.00;74.00;;;;;;5049945;28;20041;-76
2022/05/27 08:40:01;;;;;;;12.43;2.50;;;19.30;67.90;;;;;;5031157;28;20115;-83
2022/05/27 08:42:49;;;;;;;15.00;2.65;;;19.00;62.30;;;;;;5012299;28;20053;-82
2022/05/27 08:45:23;;;;;;;9.20;2.05;;;18.10;59.00;;;;;;5012301;28;20441;-83
2022/05/27 08:47:56;;;;;;;12.52;2.15;;;18.10;59.70;;;;;;5012914;28;20057;-83
2022/05/27 08:50:32;;;;;;;11.38;2.53;;;18.50;59.40;;;;;;5012218;28;20053;-83
2022/05/27 08:53:14;;;;;;;10.90;2.40;;;18.90;57.40;;;;;;5014255;28;20057;-83
2022/05/27 09:01:42;;;;;;;11.60;2.50;;;18.30;54.80;;;;;;4986463;28;20129;-82
2022/05/27 09:04:33;;;;;;;11.50;2.08;;;18.50;57.00;;;;;;4978146;28;20393;-82
2022/05/27 09:07:30;;;;;;;11.38;2.50;;;18.80;55.70;;;;;;5012737;28;20112;-83
2022/05/27 09:10:01;;;;;;;8.25;2.00;;;18.80;53.40;;;;;;5012633;28;20085;-83
2022/05/27 09:12:50;;;;;;;10.23;1.98;;;19.30;55.80;;;;;;5012015;28;20064;-82
2022/05/27 09:15:26;;;;;;;12.15;2.38;;;19.70;50.30;;;;;;4995790;28;20081;-85
2022/05/27 09:18:14;;;;;;;7.88;2.50;;;20.00;51.20;;;;;;5012273;28;20054;-83
2022/05/27 09:21:07;;;;;;;11.48;2.22;;;20.40;47.50;;;;;;4995572;28;20061;-83
2022/05/27 09:23:49;;;;;;;11.60;2.15;;;19.50;47.80;;;;;;5011664;28;20446;-83
2022/05/27 09:26:37;;;;;;;10.75;2.40;;;18.90;51.70;;;;;;4996100;28;20454;-83
2022/05/27 09:29:23;;;;;;;11.20;2.20;;;18.30;51.90;;;;;;5012121;28;20049;-83
2022/05/27 09:31:57;;;;;;;6.23;1.30;;;18.40;49.80;;;;;;4995859;28;20085;-84
2022/05/27 09:34:28;;;;;;;8.85;2.10;;;18.10;53.00;;;;;;5011782;28;20050;-83
2022/05/27 09:36:55;;;;;;;10.77;2.63;;;17.90;54.50;;;;;;5012022;28;20137;-83
2022/05/27 09:39:24;;;;;;;13.35;2.38;;;17.60;55.60;;;;;;5011558;28;20042;-83
2022/05/27 09:42:15;;;;;;;8.70;2.10;;;17.50;56.80;;;;;;5011639;28;20046;-82
2022/05/27 09:44:53;;;;;;;8.70;2.28;;;18.70;53.90;;;;;;4994983;28;20084;-84
2022/05/27 09:47:21;;;;;;;7.72;1.90;;;19.30;51.30;;;;;;4995256;28;20057;-86
2022/05/27 09:49:59;;;;;;;8.82;2.45;;;18.70;51.40;;;;;;4995412;28;20112;-83
2022/05/27 09:52:27;;;;;;;10.63;1.65;;;18.60;50.80;;;;;;5011260;28;20050;-83
2022/05/27 09:54:55;;;;;;;11.07;2.13;;;19.30;51.80;;;;;;4995427;28;20436;-83
2022/05/27 09:57:25;;;;;;;7.47;1.55;;;19.30;51.10;;;;;;4994718;28;20057;-86
2022/05/27 10:00:04;;;;;;;12.68;2.40;;;19.00;52.00;;;;;;4995384;28;20089;-83
2022/05/27 10:02:34;;;;;;;11.25;2.00;;;18.50;53.10;;;;;;5009577;28;20486;-82
2022/05/27 10:05:15;;;;;;;12.00;2.20;;;17.90;54.00;;;;;;5014090;28;20187;-82
2022/05/27 10:07:44;;;;;;;8.38;2.00;;;17.40;54.00;;;;;;5014341;28;20049;-83
2022/05/27 10:10:34;;;;;;;9.57;2.55;;;17.40;56.50;;;;;;5014708;28;20206;-83
2022/05/27 10:13:34;;;;;;;11.15;2.08;;;18.00;54.20;;;;;;5031156;28;20041;-82
2022/05/27 10:16:25;;;;;;;10.95;1.88;;;17.80;51.90;;;;;;5030224;28;20066;-83
2022/05/27 10:19:08;;;;;;;8.35;2.22;;;18.60;52.30;;;;;;5030427;28;20054;-83
2022/05/27 10:22:00;;;;;;;8.15;1.67;;;19.60;48.10;;;;;;5014111;28;20431;-82
2022/05/27 10:24:28;;;;;;;7.43;1.85;;;20.60;46.10;;;;;;5014021;28;20137;-83
2022/05/27 10:27:17;;;;;;;12.13;2.00;;;20.20;48.00;;;;;;5030783;28;20053;-83
2022/05/27 10:29:49;;;;;;;10.85;2.20;;;20.30;47.20;;;;;;5030329;28;20878;-83
2022/05/27 10:32:34;;;;;;;9.68;2.20;;;19.60;48.70;;;;;;5030670;28;20054;-83
2022/05/27 10:35:07;;;;;;;7.67;1.67;;;19.60;48.30;;;;;;5030692;28;20092;-82
2022/05/27 10:38:10;;;;;;;11.88;2.70;;;19.60;49.90;;;;;;5013767;28;20485;-84
2022/05/27 10:41:19;;;;;;;9.68;1.92;;;19.40;49.30;;;;;;5012970;28;20053;-82
2022/05/27 10:44:00;;;;;;;8.55;2.60;;;19.40;48.30;;;;;;5029899;28;20049;-83
2022/05/27 10:46:53;;;;;;;9.73;2.03;;;18.60;50.70;;;;;;5013814;28;20049;-84
2022/05/27 10:49:28;;;;;;;9.65;2.35;;;18.00;51.30;;;;;;5013435;28;20057;-82
2022/05/27 10:52:20;;;;;;;7.63;2.03;;;17.50;53.50;;;;;;5030490;28;20060;-83
2022/05/27 10:55:14;;;;;;;9.18;1.98;;;17.70;54.60;;;;;;5013555;28;20037;-83
2022/05/27 11:03:53;;;;;;;7.63;1.98;;;19.50;47.30;;;;;;5018567;28;20520;-81
2022/05/27 11:06:42;;;;;;;11.02;1.98;;;19.30;48.40;;;;;;5023336;28;20057;-79
2022/05/27 11:09:41;;;;;;;9.73;2.00;;;19.00;49.50;;;;;;5010631;28;20570;-80
2022/05/27 11:15:38;;;;;;;12.65;2.10;;;19.80;49.20;;;;;;5009372;28;20730;-79
2022/05/27 11:18:18;;;;;;;10.15;1.98;;;20.60;45.60;;;;;;5026654;28;20055;-79
2022/05/27 11:20:44;;;;;;;9.80;1.80;;;20.40;44.60;;;;;;5042559;28;20714;-79
2022/05/27 11:23:49;;;;;;;10.43;2.08;;;19.80;47.90;;;;;;5042858;28;20041;-79
2022/05/27 11:26:51;;;;;;;11.43;2.35;;;20.20;47.30;;;;;;5026322;28;20093;-79
2022/05/27 11:29:42;;;;;;;10.75;2.17;;;21.30;48.20;;;;;;5026600;28;20060;-79
2022/05/27 11:32:26;;;;;;;8.90;2.20;;;22.50;42.30;;;;;;5043155;28;20116;-80
2022/05/27 11:35:00;;;;;;;7.70;1.95;;;20.90;43.70;;;;;;5027947;28;20124;-79
2022/05/27 11:37:42;;;;;;;6.68;1.90;;;19.70;45.00;;;;;;5000950;28;20119;-79
2022/05/27 11:40:42;;;;;;;11.23;2.08;;;19.40;46.70;;;;;;5015237;28;20060;-79
2022/05/27 11:43:37;;;;;;;13.70;2.90;;;19.00;48.20;;;;;;5030541;28;20059;-81
2022/05/27 11:46:44;;;;;;;10.45;2.35;;;18.80;49.70;;;;;;5030120;28;20203;-80
2022/05/27 11:49:30;;;;;;;10.02;2.10;;;19.30;49.10;;;;;;4991958;28;20049;-79
2022/05/27 11:52:25;;;;;;;10.02;2.35;;;20.30;50.50;;;;;;4975354;28;20144;-80
2022/05/27 11:55:19;;;;;;;9.88;1.70;;;21.40;45.00;;;;;;5021645;28;20053;-79
2022/05/27 11:57:59;;;;;;;12.20;2.35;;;22.10;44.30;;;;;;5009101;28;20054;-81
2022/05/27 12:00:29;;;;;;;11.50;2.50;;;21.80;45.50;;;;;;5009743;28;20480;-79
2022/05/27 12:03:19;;;;;;;8.32;2.03;;;21.40;44.40;;;;;;5044002;28;20045;-79
2022/05/27 12:05:52;;;;;;;8.10;2.00;;;21.40;43.50;;;;;;5048537;28;20102;-80
2022/05/27 12:08:38;;;;;;;9.85;2.05;;;21.30;44.30;;;;;;5049244;28;20052;-80
2022/05/27 12:11:27;;;;;;;11.45;2.20;;;21.30;44.30;;;;;;5049192;28;20102;-79
2022/05/27 12:14:03;;;;;;;9.82;1.77;;;20.40;44.70;;;;;;5039212;28;20141;-79
2022/05/27 12:16:37;;;;;;;10.30;2.10;;;19.70;47.30;;;;;;5029408;28;20041;-80
2022/05/27 12:19:24;;;;;;;10.50;2.30;;;19.00;48.70;;;;;;5024973;28;20121;-82
2022/05/27 12:22:05;;;;;;;;;;;19.90;47.70;;;;;;5006676;28;20041;-79
2022/05/27 12:24:41;;;;;;;11.00;2.03;;;21.00;45.70;;;;;;5027142;28;19967;-79
2022/05/27 12:27:10;;;;;;;13.50;2.38;;;21.70;42.90;;;;;;5057355;28;20045;-79
2022/05/27 12:29:39;;;;;;;12.43;2.50;;;21.80;44.30;;;;;;5010958;28;20393;-78
2022/05/27 12:32:08;;;;;;;9.02;2.05;;;22.30;43.70;;;;;;5016985;28;20055;-80
2022/05/27 12:34:36;;;;;;;10.52;2.30;;;21.70;43.30;;;;;;5021523;28;20056;-81
2022/05/27 12:37:15;;;;;;;12.75;2.30;;;21.10;44.60;;;;;;5010719;28;20045;-79
2022/05/27 12:39:42;;;;;;;14.00;2.30;;;20.00;45.90;;;;;;4996289;28;20061;-83
2022/05/27 12:42:17;;;;;;;12.65;3.30;;;20.70;47.00;;;;;;5023684;28;20111;-80
2022/05/27 12:44:43;;;;;;;9.88;2.03;;;21.70;44.30;;;;;;5020078;28;20041;-79
2022/05/27 12:47:30;;;;;;;10.50;2.65;;;20.90;44.60;;;;;;5015461;28;20372;-79
2022/05/27 12:50:20;;;;;;;12.82;2.55;;;19.70;46.40;;;;;;5033868;28;20386;-79
2022/05/27 12:52:49;;;;;;;8.43;1.98;;;18.90;48.60;;;;;;5038536;28;20054;-79
2022/05/27 13:00:55;;;;;;;9.35;2.03;;;18.30;49.80;;;;;;5019830;28;20048;-79
2022/05/27 13:01:41;;;;;;;11.77;2.25;;;19.60;49.60;;;;;;5031814;28;20103;-79
2022/05/27 13:04:27;;;;;;;13.75;2.45;;;20.60;46.60;;;;;;5023773;28;20053;-81
2022/05/27 13:07:04;;;;;;;11.93;2.27;;;20.10;47.00;;;;;;5027010;28;20099;-79
2022/05/27 13:09:37;;;;;;;9.45;2.50;;;19.40;48.90;;;;;;5014712;28;20316;-79
2022/05/27 13:12:03;;;;;;;10.98;2.08;;;20.30;48.20;;;;;;5014504;28;20060;-79
2022/05/27 13:14:55;;;;;;;9.82;2.17;;;20.70;47.70;;;;;;4992054;28;20049;-80
2022/05/27 13:17:31;;;;;;;9.85;2.35;;;20.10;45.70;;;;;;5017533;28;20089;-80
2022/05/27 13:20:16;;;;;;;10.98;2.33;;;19.40;48.30;;;;;;5029100;28;20053;-79
2022/05/27 13:23:10;;;;;;;10.40;2.38;;;18.80;48.60;;;;;;5055679;28;20049;-80
2022/05/27 13:25:45;;;;;;;13.38;2.15;;;18.70;50.80;;;;;;5028835;28;20479;-79
2022/05/27 13:28:33;;;;;;;11.18;2.22;;;19.00;51.50;;;;;;5024161;28;20085;-79
2022/05/27 13:31:02;;;;;;;11.75;2.38;;;19.00;49.80;;;;;;5012921;28;20453;-80
2022/05/27 13:33:33;;;;;;;12.45;2.40;;;19.30;50.10;;;;;;5025124;28;20045;-80
2022/05/27 13:36:01;;;;;;;15.50;2.30;;;19.10;50.40;;;;;;5044756;28;20172;-80
2022/05/27 13:38:44;;;;;;;10.65;2.00;;;19.20;51.10;;;;;;5000236;28;20117;-78
2022/05/27 13:41:14;;;;;;;10.57;2.08;;;18.80;50.00;;;;;;5027582;28;20073;-78
2022/05/27 13:43:41;;;;;;;14.32;2.38;;;18.00;52.00;;;;;;5011694;28;20178;-78
2022/05/27 13:46:28;;;;;;;9.50;2.53;;;17.70;53.80;;;;;;5034103;28;20136;-78
2022/05/27 13:49:01;;;;;;;9.30;2.13;;;17.60;55.30;;;;;;5034230;28;20059;-78
2022/05/27 13:51:27;;;;;;;13.95;2.92;;;17.50;55.60;;;;;;5051379;28;20103;-78